createdAt,value
2022-12-03T00:00:41.558Z,24.87
2022-12-03T00:03:11.356Z,6.70
2022-12-03T00:05:48.369Z,6.07
2022-12-03T00:08:18.758Z,4.57
2022-12-03T00:10:48.947Z,5.17
2022-12-03T00:13:21.974Z,9.77
2022-12-03T00:15:51.686Z,5.90
2022-12-03T00:18:21.333Z,6.93
2022-12-03T00:20:52.091Z,6.40
2022-12-03T00:23:21.802Z,8.47
2022-12-03T00:25:51.440Z,18.73
2022-12-03T00:28:20.953Z,15.60
2022-12-03T00:30:50.972Z,5.10
2022-12-03T00:33:21.065Z,12.43
2022-12-03T00:35:50.677Z,19.73
2022-12-03T00:38:20.672Z,6.83
2022-12-03T00:40:50.767Z,14.47
2022-12-03T00:43:20.951Z,17.20
2022-12-03T00:45:51.115Z,15.47
2022-12-03T00:48:20.826Z,13.40
2022-12-03T00:50:50.403Z,27.23
2022-12-03T00:53:20.346Z,13.50
2022-12-03T00:55:51.869Z,15.80
2022-12-03T00:58:21.873Z,22.00
2022-12-03T01:00:51.979Z,32.23
2022-12-03T01:03:21.965Z,35.73
2022-12-03T01:05:52.012Z,25.80
2022-12-03T01:08:22.134Z,59.47
2022-12-03T01:10:51.748Z,17.83
2022-12-03T01:13:21.286Z,37.87
2022-12-03T01:15:50.849Z,21.93
2022-12-03T01:18:20.839Z,16.60
2022-12-03T01:20:50.465Z,29.23
2022-12-03T01:23:23.220Z,33.30
2022-12-03T01:25:53.271Z,20.97
2022-12-03T01:28:22.908Z,33.20
2022-12-03T01:31:10.750Z,24.83
2022-12-03T01:33:40.819Z,15.50
2022-12-03T01:36:11.011Z,42.00
2022-12-03T01:38:40.573Z,29.03
2022-12-03T01:41:12.077Z,12.07
2022-12-03T01:43:42.205Z,50.63
2022-12-03T01:46:13.595Z,7.40
2022-12-03T01:48:43.594Z,29.50
2022-12-03T01:51:14.171Z,28.30
2022-12-03T01:53:44.096Z,45.80
2022-12-03T01:56:17.226Z,24.40
2022-12-03T01:58:47.474Z,27.37
2022-12-03T02:01:17.957Z,55.80
2022-12-03T02:03:48.133Z,77.77
2022-12-03T02:06:21.612Z,43.43
2022-12-03T02:08:51.158Z,54.80
2022-12-03T02:11:24.185Z,14.60
2022-12-03T02:13:54.945Z,39.57
2022-12-03T02:16:26.836Z,24.93
2022-12-03T02:18:57.009Z,48.23
2022-12-03T02:21:27.340Z,46.33
2022-12-03T02:24:16.122Z,41.90
2022-12-03T02:26:46.476Z,37.37
2022-12-03T02:29:16.731Z,72.07
2022-12-03T02:31:46.733Z,47.10
2022-12-03T02:34:35.234Z,62.57
2022-12-03T02:37:05.505Z,55.90
2022-12-03T02:39:35.956Z,78.20
2022-12-03T02:42:24.372Z,38.33
2022-12-03T02:44:56.112Z,56.77
2022-12-03T02:47:27.687Z,30.60
2022-12-03T02:49:57.328Z,71.30
2022-12-03T02:52:27.293Z,45.17
2022-12-03T02:54:56.828Z,10.83
2022-12-03T02:57:42.304Z,18.92
2022-12-03T03:00:12.687Z,41.93
2022-12-03T03:02:42.806Z,29.00
2022-12-03T03:05:12.804Z,32.30
2022-12-03T03:07:42.910Z,29.70
2022-12-03T03:10:14.116Z,12.07
2022-12-03T03:12:44.275Z,24.27
2022-12-03T03:15:14.022Z,11.40
2022-12-03T03:17:44.486Z,4.13
2022-12-03T03:20:14.221Z,21.87
2022-12-03T03:22:44.703Z,4.63
2022-12-03T03:25:15.289Z,7.17
2022-12-03T03:27:44.765Z,2.87
2022-12-03T03:30:15.166Z,2.43
2022-12-03T03:32:44.863Z,6.80
2022-12-03T03:35:15.422Z,10.90
2022-12-03T03:37:45.372Z,5.40
2022-12-03T03:40:15.003Z,16.23
2022-12-03T03:42:44.454Z,7.63
2022-12-03T03:45:14.004Z,15.53
2022-12-03T03:47:43.699Z,10.87
2022-12-03T03:50:13.520Z,4.83
2022-12-03T03:52:43.452Z,5.17
2022-12-03T03:55:13.082Z,8.27
2022-12-03T03:57:43.117Z,5.40
2022-12-03T04:00:13.496Z,9.90
2022-12-03T04:02:43.792Z,16.37
2022-12-03T04:05:17.287Z,15.67
2022-12-03T04:07:46.938Z,11.63
2022-12-03T04:10:46.007Z,16.10
2022-12-03T04:13:15.577Z,9.90
2022-12-03T04:15:45.612Z,5.00
2022-12-03T04:18:33.831Z,14.43
2022-12-03T04:21:21.989Z,14.47
2022-12-03T04:23:52.026Z,9.17
2022-12-03T04:26:40.113Z,18.37
2022-12-03T04:29:10.210Z,13.97
2022-12-03T04:31:59.036Z,16.60
2022-12-03T04:34:47.607Z,10.30
2022-12-03T04:37:17.259Z,8.77
2022-12-03T04:39:46.846Z,11.10
2022-12-03T04:42:16.791Z,13.23
2022-12-03T04:44:46.375Z,15.25
2022-12-03T04:47:20.028Z,19.33
2022-12-03T04:49:50.907Z,31.25
2022-12-03T04:52:21.335Z,23.95
2022-12-03T04:54:51.644Z,34.58
2022-12-03T04:57:24.261Z,27.70
2022-12-03T04:59:53.816Z,39.42
2022-12-03T05:02:23.434Z,30.98
2022-12-03T05:04:53.296Z,30.58
2022-12-03T05:07:23.451Z,21.95
2022-12-03T05:09:53.649Z,27.88
2022-12-03T05:12:23.209Z,24.13
2022-12-03T05:14:53.468Z,21.52
2022-12-03T05:17:23.711Z,19.02
2022-12-03T05:20:11.900Z,15.13
2022-12-03T05:22:42.035Z,13.60
2022-12-03T05:25:12.187Z,14.52
2022-12-03T05:27:41.725Z,12.88
2022-12-03T05:30:11.590Z,13.10
2022-12-03T05:32:41.190Z,11.68
2022-12-03T05:35:11.845Z,15.05
2022-12-03T05:37:41.967Z,13.90
2022-12-03T05:40:11.918Z,13.70
2022-12-03T05:43:01.788Z,13.30
2022-12-03T05:45:38.087Z,13.15
2022-12-03T05:48:08.955Z,20.83
2022-12-03T05:50:39.565Z,17.65
2022-12-03T05:53:18.562Z,14.13
2022-12-03T05:55:48.587Z,14.27
2022-12-03T05:58:19.079Z,13.40
2022-12-03T06:00:49.083Z,10.43
2022-12-03T06:03:19.628Z,12.90
2022-12-03T06:05:49.339Z,14.30
2022-12-03T06:08:19.315Z,13.63
2022-12-03T06:10:48.950Z,15.88
2022-12-03T06:13:18.987Z,14.75
2022-12-03T06:15:49.195Z,18.05
2022-12-03T06:18:18.842Z,12.05
2022-12-03T06:20:48.392Z,13.50
2022-12-03T06:23:19.013Z,12.48
2022-12-03T06:25:48.732Z,14.90
2022-12-03T06:28:18.284Z,22.63
2022-12-03T06:30:48.198Z,13.02
2022-12-03T06:33:18.201Z,12.05
2022-12-03T06:35:47.778Z,8.80
2022-12-03T06:38:17.690Z,9.80
2022-12-03T06:40:47.733Z,10.23
2022-12-03T06:43:17.376Z,12.60
2022-12-03T06:45:48.025Z,10.85
2022-12-03T06:48:18.193Z,11.73
2022-12-03T06:50:47.721Z,11.05
2022-12-03T06:53:17.202Z,13.30
2022-12-03T06:55:47.215Z,12.73
2022-12-03T06:58:17.293Z,12.98
2022-12-03T07:00:51.918Z,18.60
2022-12-03T07:03:22.426Z,11.88
2022-12-03T07:05:52.098Z,14.13
2022-12-03T07:08:22.755Z,15.10
2022-12-03T07:10:52.611Z,8.65
2022-12-03T07:13:22.693Z,7.45
2022-12-03T07:15:53.475Z,14.80
2022-12-03T07:18:24.079Z,7.95
2022-12-03T07:20:53.570Z,10.63
2022-12-03T07:23:23.084Z,10.20
2022-12-03T07:25:52.706Z,12.25
2022-12-03T07:28:22.290Z,7.68
2022-12-03T07:30:51.762Z,8.55
2022-12-03T07:33:21.784Z,13.75
2022-12-03T07:35:51.444Z,19.95
2022-12-03T07:38:21.421Z,12.77
2022-12-03T07:40:51.839Z,18.40
2022-12-03T07:43:21.415Z,14.60
2022-12-03T07:45:50.904Z,13.45
2022-12-03T07:48:20.925Z,15.10
2022-12-03T07:50:50.680Z,14.98
2022-12-03T07:53:20.841Z,18.77
2022-12-03T07:55:50.870Z,20.20
2022-12-03T07:58:20.480Z,21.65
2022-12-03T08:00:50.065Z,24.65
2022-12-03T08:03:20.069Z,34.00
2022-12-03T08:05:50.269Z,23.42
2022-12-03T08:08:20.465Z,26.30
2022-12-03T08:10:50.774Z,28.15
2022-12-03T08:13:20.611Z,24.45
2022-12-03T08:15:52.586Z,23.92
2022-12-03T08:18:23.485Z,14.65
2022-12-03T08:20:53.266Z,13.80
2022-12-03T08:23:24.431Z,10.82
2022-12-03T08:25:54.830Z,14.35
2022-12-03T08:28:29.480Z,8.85
2022-12-03T08:31:19.333Z,14.07
2022-12-03T08:33:50.270Z,6.97
2022-12-03T08:36:27.261Z,9.82
2022-12-03T08:38:58.131Z,16.80
2022-12-03T08:41:46.166Z,2.33
2022-12-03T08:44:33.177Z,8.98
2022-12-03T08:47:13.731Z,5.87
2022-12-03T08:49:43.907Z,6.37
2022-12-03T08:52:23.293Z,3.30
2022-12-03T08:54:57.331Z,0.93
2022-12-03T08:57:27.792Z,4.17
2022-12-03T09:00:02.973Z,13.10
2022-12-03T09:02:35.778Z,0.63
2022-12-03T09:05:16.114Z,1.65
2022-12-03T09:07:46.995Z,2.67
2022-12-03T09:10:17.862Z,6.93
2022-12-03T09:12:47.426Z,3.27
2022-12-03T09:15:17.056Z,0.50
2022-12-03T09:17:47.106Z,2.20
2022-12-03T09:20:16.703Z,2.23
2022-12-03T09:22:46.302Z,7.73
2022-12-03T09:25:17.133Z,2.40
2022-12-03T09:27:47.094Z,0.07
2022-12-03T09:30:16.833Z,9.13
2022-12-03T09:32:46.782Z,3.83
2022-12-03T09:35:19.739Z,1.10
2022-12-03T09:37:49.365Z,0.50
2022-12-03T09:40:23.155Z,1.43
2022-12-03T09:42:53.244Z,0.00
2022-12-03T09:45:25.375Z,0.47
2022-12-03T09:47:54.864Z,0.30
2022-12-03T09:50:26.189Z,2.27
2022-12-03T09:52:56.468Z,0.30
2022-12-03T09:55:27.631Z,1.27
2022-12-03T09:57:58.074Z,0.10
2022-12-03T10:00:31.465Z,2.30
2022-12-03T10:03:03.243Z,0.40
2022-12-03T10:05:34.021Z,0.53
2022-12-03T10:08:11.842Z,0.17
2022-12-03T10:10:42.435Z,0.13
2022-12-03T10:13:17.125Z,1.73
2022-12-03T10:15:52.401Z,4.53
2022-12-03T10:18:24.852Z,1.40
2022-12-03T10:20:55.268Z,1.50
2022-12-03T10:23:27.072Z,4.57
2022-12-03T10:25:57.334Z,4.07
2022-12-03T10:28:32.531Z,2.10
2022-12-03T10:31:03.089Z,3.33
2022-12-03T10:33:33.629Z,5.00
2022-12-03T10:36:22.716Z,3.03
2022-12-03T10:39:07.884Z,6.03
2022-12-03T10:41:38.925Z,7.15
2022-12-03T10:44:18.231Z,1.20
2022-12-03T10:46:48.937Z,3.67
2022-12-03T10:49:19.408Z,3.30
2022-12-03T10:51:49.013Z,16.03
2022-12-03T10:54:23.208Z,5.47
2022-12-03T10:56:53.263Z,38.50
2022-12-03T10:59:23.714Z,48.57
2022-12-03T11:01:53.916Z,61.00
2022-12-03T11:04:24.618Z,71.70
2022-12-03T11:06:54.140Z,106.40
2022-12-03T11:09:28.146Z,95.57
2022-12-03T11:11:57.857Z,95.57
2022-12-03T11:14:46.114Z,122.53
2022-12-03T11:17:16.066Z,116.23
2022-12-03T11:19:46.475Z,139.90
2022-12-03T11:22:16.424Z,193.40
2022-12-03T11:24:46.757Z,158.13
2022-12-03T11:27:20.515Z,170.20
2022-12-03T11:29:55.006Z,148.03
2022-12-03T11:32:45.606Z,115.60
2022-12-03T11:35:16.268Z,101.10
2022-12-03T11:37:46.301Z,140.27
2022-12-03T11:40:21.003Z,116.50
2022-12-03T11:42:51.517Z,122.53
2022-12-03T11:45:24.963Z,76.33
2022-12-03T11:47:55.411Z,103.13
2022-12-03T11:50:26.128Z,78.90
2022-12-03T11:52:59.901Z,71.93
2022-12-03T11:55:32.979Z,106.13
2022-12-03T11:58:04.164Z,73.53
2022-12-03T12:00:34.132Z,63.47
2022-12-03T12:03:04.252Z,84.97
2022-12-03T12:05:34.801Z,52.43
2022-12-03T12:08:04.550Z,92.10
2022-12-03T12:10:39.982Z,48.50
2022-12-03T12:15:44.302Z,52.90
2022-12-03T12:18:32.785Z,97.27
2022-12-03T12:21:21.923Z,65.97
2022-12-03T12:23:51.943Z,59.97
2022-12-03T12:26:22.162Z,75.37
2022-12-03T12:28:52.801Z,54.10
2022-12-03T12:31:22.483Z,48.10
2022-12-03T12:33:52.095Z,60.80
2022-12-03T12:36:21.724Z,57.80
2022-12-03T12:38:53.776Z,85.70
2022-12-03T12:41:25.513Z,32.90
2022-12-03T12:43:55.707Z,48.73
2022-12-03T12:46:47.136Z,44.50
2022-12-03T12:49:16.641Z,57.73
2022-12-03T12:51:47.164Z,25.90
2022-12-03T12:54:17.619Z,52.97
2022-12-03T12:56:48.801Z,46.67
2022-12-03T12:59:22.634Z,44.73
2022-12-03T13:01:55.753Z,44.33
2022-12-03T13:04:26.076Z,58.17
2022-12-03T13:06:55.747Z,51.00
2022-12-03T13:09:26.418Z,53.20
2022-12-03T13:11:59.243Z,52.13
2022-12-03T13:14:38.845Z,45.07
2022-12-03T13:17:19.196Z,43.37
2022-12-03T13:19:55.884Z,36.53
2022-12-03T13:22:30.938Z,47.37
2022-12-03T13:25:01.111Z,43.60
2022-12-03T13:27:31.446Z,53.80
2022-12-03T13:30:02.056Z,20.27
2022-12-03T13:32:40.921Z,31.67
2022-12-03T13:35:18.157Z,20.83
2022-12-03T13:37:48.343Z,26.93
2022-12-03T13:40:21.694Z,24.97
2022-12-03T13:42:56.913Z,18.47
2022-12-03T13:45:34.597Z,51.93
2022-12-03T13:48:05.548Z,24.50
2022-12-03T13:50:40.223Z,34.27
2022-12-03T13:53:25.439Z,74.57
2022-12-03T13:56:17.132Z,29.40
2022-12-03T13:58:50.442Z,32.40
2022-12-03T14:01:22.775Z,40.13
2022-12-03T14:03:53.017Z,32.17
2022-12-03T14:06:23.502Z,39.30
2022-12-03T14:08:53.692Z,42.70
2022-12-03T14:11:42.216Z,53.33
2022-12-03T14:14:11.986Z,34.23
2022-12-03T14:16:41.631Z,42.80
2022-12-03T14:19:12.268Z,38.37
2022-12-03T14:21:42.347Z,42.33
2022-12-03T14:24:12.326Z,30.00
2022-12-03T14:26:42.008Z,45.07
2022-12-03T14:29:12.685Z,47.57
2022-12-03T14:31:42.667Z,52.27
2022-12-03T14:34:13.001Z,36.30
2022-12-03T14:36:43.435Z,42.30
2022-12-03T14:39:14.391Z,60.97
2022-12-03T14:42:02.619Z,55.47
2022-12-03T14:44:32.999Z,36.80
2022-12-03T14:47:02.611Z,53.80
2022-12-03T14:49:35.569Z,54.37
2022-12-03T14:52:08.592Z,45.20
2022-12-03T14:54:43.002Z,47.93
2022-12-03T14:57:15.722Z,44.93
2022-12-03T14:59:45.813Z,39.17
2022-12-03T15:02:16.253Z,30.23
2022-12-03T15:04:47.367Z,47.20
2022-12-03T15:07:17.308Z,34.67
2022-12-03T15:09:48.103Z,44.13
2022-12-03T15:12:18.313Z,30.23
2022-12-03T15:14:48.399Z,43.70
2022-12-03T15:17:25.462Z,51.83
2022-12-03T15:19:59.845Z,37.73
2022-12-03T15:22:29.881Z,30.73
2022-12-03T15:25:00.034Z,72.13
2022-12-03T15:27:29.746Z,41.83
2022-12-03T15:29:59.434Z,63.53
2022-12-03T15:32:29.542Z,48.73
2022-12-03T15:35:02.613Z,42.80
2022-12-03T15:37:32.917Z,31.87
2022-12-03T15:40:02.901Z,34.70
2022-12-03T15:42:33.434Z,98.80
2022-12-03T15:45:03.556Z,45.80
2022-12-03T15:47:34.415Z,32.17
2022-12-03T15:50:04.843Z,51.07
2022-12-03T15:52:36.038Z,75.77
2022-12-03T15:55:05.898Z,40.60
2022-12-03T15:57:35.876Z,56.20
2022-12-03T16:00:06.678Z,45.73
2022-12-03T16:02:45.157Z,50.23
2022-12-03T16:05:19.491Z,48.60
2022-12-03T16:07:49.919Z,55.60
2022-12-03T16:10:22.595Z,38.60
2022-12-03T16:12:53.205Z,52.77
2022-12-03T16:15:27.267Z,78.63
2022-12-03T16:17:57.164Z,89.20
2022-12-03T16:20:27.653Z,81.70
2022-12-03T16:22:58.623Z,81.73
2022-12-03T16:25:28.997Z,39.30
2022-12-03T16:27:59.625Z,92.90
2022-12-03T16:30:29.634Z,27.83
2022-12-03T16:33:00.287Z,25.57
2022-12-03T16:35:30.079Z,13.47
2022-12-03T16:37:59.628Z,43.60
2022-12-03T16:40:29.356Z,48.90
2022-12-03T16:42:59.059Z,22.73
2022-12-03T16:45:55.106Z,31.73
2022-12-03T16:48:24.841Z,30.10
2022-12-03T16:50:55.561Z,11.13
2022-12-03T16:53:25.796Z,10.67
2022-12-03T16:55:55.931Z,21.43
2022-12-03T16:58:26.331Z,23.90
2022-12-03T17:00:56.550Z,14.27
2022-12-03T17:03:32.024Z,24.33
2022-12-03T17:06:03.229Z,24.73
2022-12-03T17:08:34.236Z,26.80
2022-12-03T17:11:04.846Z,27.67
2022-12-03T17:13:34.935Z,27.20
2022-12-03T17:16:04.896Z,31.33
2022-12-03T17:18:35.000Z,38.07
2022-12-03T17:21:04.633Z,46.93
2022-12-03T17:23:35.057Z,35.53
2022-12-03T17:26:04.613Z,40.00
2022-12-03T17:28:34.585Z,57.70
2022-12-03T17:31:04.456Z,76.33
2022-12-03T17:33:34.141Z,32.63
2022-12-03T17:36:03.747Z,34.70
2022-12-03T17:38:38.881Z,47.70
2022-12-03T17:41:12.034Z,32.30
2022-12-03T17:43:41.678Z,22.80
2022-12-03T17:46:11.262Z,43.10
2022-12-03T17:48:43.146Z,25.07
2022-12-03T17:51:12.837Z,32.87
2022-12-03T17:53:43.322Z,32.27
2022-12-03T17:56:13.487Z,32.20
2022-12-03T17:58:43.126Z,83.37
2022-12-03T18:01:12.624Z,51.73
2022-12-03T18:03:42.279Z,74.87
2022-12-03T18:06:11.887Z,61.17
2022-12-03T18:08:41.451Z,78.80
2022-12-03T18:11:11.405Z,62.40
2022-12-03T18:13:40.932Z,44.03
2022-12-03T18:16:11.031Z,104.10
2022-12-03T18:18:41.126Z,57.67
2022-12-03T18:21:11.153Z,45.60
2022-12-03T18:23:40.912Z,38.87
2022-12-03T18:26:10.939Z,78.40
2022-12-03T18:28:41.138Z,38.97
2022-12-03T18:31:21.339Z,53.07
2022-12-03T18:33:51.576Z,42.07
2022-12-03T18:36:21.172Z,30.00
2022-12-03T18:38:52.566Z,43.87
2022-12-03T18:41:23.495Z,38.87
2022-12-03T18:43:54.032Z,46.50
2022-12-03T18:46:52.517Z,27.50
2022-12-03T18:49:14.344Z,64.50
2022-12-03T18:51:44.623Z,41.00
2022-12-03T18:54:14.840Z,51.87
2022-12-03T18:56:45.204Z,38.00
2022-12-03T18:59:14.807Z,45.33
2022-12-03T19:01:45.372Z,36.43
2022-12-03T19:04:15.177Z,37.50
2022-12-03T19:06:45.310Z,29.30
2022-12-03T19:09:15.443Z,35.57
2022-12-03T19:11:45.585Z,44.30
2022-12-03T19:14:15.663Z,19.10
2022-12-03T19:16:45.921Z,54.33
2022-12-03T19:19:16.135Z,37.83
2022-12-03T19:21:46.144Z,44.30
2022-12-03T19:24:24.449Z,62.83
2022-12-03T19:26:56.124Z,53.60
2022-12-03T19:29:26.550Z,45.70
2022-12-03T19:31:56.987Z,50.23
2022-12-03T19:34:27.560Z,65.53
2022-12-03T19:36:57.675Z,40.07
2022-12-03T19:39:27.840Z,18.77
2022-12-03T19:41:58.752Z,26.70
2022-12-03T19:44:28.713Z,26.47
2022-12-03T19:46:58.341Z,43.03
2022-12-03T19:49:28.412Z,31.90
2022-12-03T19:51:58.072Z,25.23
2022-12-03T19:54:28.106Z,55.27
2022-12-03T19:56:57.691Z,22.37
2022-12-03T19:59:27.294Z,50.83
2022-12-03T20:01:56.972Z,54.77
2022-12-03T20:04:26.996Z,28.20
2022-12-03T20:06:56.609Z,25.77
2022-12-03T20:09:26.976Z,15.77
2022-12-03T20:11:57.233Z,14.77
2022-12-03T20:14:27.470Z,27.33
2022-12-03T20:16:57.567Z,12.13
2022-12-03T20:19:27.186Z,40.07
2022-12-03T20:22:02.310Z,21.00
2022-12-03T20:24:33.839Z,16.33
2022-12-03T20:27:03.549Z,22.77
2022-12-03T20:29:33.589Z,10.50
2022-12-03T20:32:05.154Z,17.70
2022-12-03T20:34:36.709Z,15.60
2022-12-03T20:37:07.540Z,13.67
2022-12-03T20:39:37.676Z,20.57
2022-12-03T20:42:07.361Z,16.53
2022-12-03T20:44:39.102Z,22.33
2022-12-03T20:47:09.502Z,15.20
2022-12-03T20:49:40.956Z,19.40
2022-12-03T20:52:11.432Z,38.27
2022-12-03T20:54:41.529Z,19.73
2022-12-03T20:57:11.680Z,17.30
2022-12-03T20:59:41.848Z,26.97
2022-12-03T21:02:12.014Z,20.33
2022-12-03T21:04:41.883Z,28.43
2022-12-03T21:07:11.571Z,40.80
2022-12-03T21:09:41.528Z,8.13
2022-12-03T21:12:11.254Z,24.90
2022-12-03T21:14:41.224Z,16.00
2022-12-03T21:17:11.009Z,17.10
2022-12-03T21:19:40.588Z,9.00
2022-12-03T21:22:11.024Z,20.27
2022-12-03T21:24:43.988Z,10.70
2022-12-03T21:27:17.102Z,9.90
2022-12-03T21:29:51.565Z,21.40
2022-12-03T21:32:21.853Z,11.93
2022-12-03T21:34:51.439Z,30.50
2022-12-03T21:37:21.400Z,23.43
2022-12-03T21:39:51.695Z,26.83
2022-12-03T21:42:34.800Z,9.93
2022-12-03T21:45:06.952Z,22.27
2022-12-03T21:47:37.775Z,27.57
2022-12-03T21:50:08.625Z,25.67
2022-12-03T21:52:39.413Z,20.60
2022-12-03T21:55:09.931Z,15.03
2022-12-03T21:57:39.558Z,37.03
2022-12-03T22:00:10.171Z,15.20
2022-12-03T22:02:42.813Z,22.63
2022-12-03T22:05:13.529Z,13.43
2022-12-03T22:07:43.193Z,32.83
2022-12-03T22:10:13.162Z,11.53
2022-12-03T22:12:43.644Z,24.27
2022-12-03T22:15:18.454Z,23.27
2022-12-03T22:20:18.499Z,14.87
2022-12-03T22:22:49.282Z,14.30
2022-12-03T22:25:18.983Z,25.13
2022-12-03T22:27:48.467Z,20.30
2022-12-03T22:30:17.959Z,32.33
2022-12-03T22:32:47.439Z,19.27
2022-12-03T22:35:16.996Z,21.87
2022-12-03T22:37:46.545Z,24.17
2022-12-03T22:40:16.273Z,31.93
2022-12-03T22:42:50.755Z,28.27
2022-12-03T22:45:21.444Z,14.23
2022-12-03T22:47:51.477Z,20.70
2022-12-03T22:50:21.075Z,33.33
2022-12-03T22:52:50.996Z,5.70
2022-12-03T22:55:21.202Z,37.67
2022-12-03T22:57:51.132Z,25.50
2022-12-03T23:00:36.703Z,12.57
2022-12-03T23:03:06.745Z,29.10
2022-12-03T23:05:37.679Z,27.20
2022-12-03T23:08:11.311Z,18.13
2022-12-03T23:10:41.642Z,15.43
2022-12-03T23:13:11.190Z,21.70
2022-12-03T23:15:45.454Z,9.93
2022-12-03T23:18:15.534Z,16.00
2022-12-03T23:20:45.839Z,4.43
2022-12-03T23:23:16.020Z,29.50
2022-12-03T23:25:46.113Z,18.50
2022-12-03T23:28:16.160Z,5.60
2022-12-03T23:30:46.344Z,6.37
2022-12-03T23:33:16.508Z,4.47
2022-12-03T23:35:46.463Z,4.43
2022-12-03T23:38:16.670Z,6.03
2022-12-03T23:40:48.269Z,17.43
2022-12-03T23:43:19.506Z,7.57
2022-12-03T23:45:49.160Z,13.57
2022-12-03T23:48:19.452Z,5.50
2022-12-03T23:50:49.887Z,6.27
2022-12-03T23:53:19.466Z,6.10
2022-12-03T23:55:49.417Z,14.67
2022-12-03T23:58:19.008Z,18.90
